sensor_id;sensor_type;location;lat;lon;timestamp;P1;durP1;ratioP1;P2;durP2;ratioP2
38399;SDS011;24180;42.676;23.320;2023-12-20T00:01:35;77.50;;;34.50;;
38399;SDS011;24180;42.676;23.320;2023-12-20T00:04:00;85.78;;;37.25;;
38399;SDS011;24180;42.676;23.320;2023-12-20T00:06:27;79.60;;;33.47;;
38399;SDS011;24180;42.676;23.320;2023-12-20T00:08:52;82.43;;;34.17;;
38399;SDS011;24180;42.676;23.320;2023-12-20T00:11:18;94.28;;;39.67;;
38399;SDS011;24180;42.676;23.320;2023-12-20T00:13:44;78.60;;;34.97;;
38399;SDS011;24180;42.676;23.320;2023-12-20T00:16:09;75.93;;;34.30;;
38399;SDS011;24180;42.676;23.320;2023-12-20T00:18:35;106.60;;;43.20;;
38399;SDS011;24180;42.676;23.320;2023-12-20T00:21:00;105.93;;;41.95;;
38399;SDS011;24180;42.676;23.320;2023-12-20T00:23:25;95.68;;;41.20;;
38399;SDS011;24180;42.676;23.320;2023-12-20T00:25:51;114.75;;;46.63;;
38399;SDS011;24180;42.676;23.320;2023-12-20T00:28:16;120.28;;;48.10;;
38399;SDS011;24180;42.676;23.320;2023-12-20T00:30:42;110.15;;;46.70;;
38399;SDS011;24180;42.676;23.320;2023-12-20T00:33:08;104.30;;;44.67;;
38399;SDS011;24180;42.676;23.320;2023-12-20T00:35:33;113.20;;;47.35;;
38399;SDS011;24180;42.676;23.320;2023-12-20T00:37:59;113.63;;;47.50;;
38399;SDS011;24180;42.676;23.320;2023-12-20T00:40:24;111.82;;;46.50;;
38399;SDS011;24180;42.676;23.320;2023-12-20T00:42:50;107.85;;;44.38;;
38399;SDS011;24180;42.676;23.320;2023-12-20T00:45:15;102.68;;;45.45;;
38399;SDS011;24180;42.676;23.320;2023-12-20T00:47:41;101.03;;;41.90;;
38399;SDS011;24180;42.676;23.320;2023-12-20T00:50:06;88.45;;;39.53;;
38399;SDS011;24180;42.676;23.320;2023-12-20T00:52:32;85.40;;;39.35;;
38399;SDS011;24180;42.676;23.320;2023-12-20T00:54:58;91.47;;;39.55;;
38399;SDS011;24180;42.676;23.320;2023-12-20T00:57:23;73.28;;;34.88;;
38399;SDS011;24180;42.676;23.320;2023-12-20T00:59:49;91.57;;;38.72;;
38399;SDS011;24180;42.676;23.320;2023-12-20T01:02:14;90.68;;;38.90;;
38399;SDS011;24180;42.676;23.320;2023-12-20T01:04:40;95.45;;;39.20;;
38399;SDS011;24180;42.676;23.320;2023-12-20T01:07:05;80.65;;;36.20;;
38399;SDS011;24180;42.676;23.320;2023-12-20T01:09:30;79.47;;;33.50;;
38399;SDS011;24180;42.676;23.320;2023-12-20T01:11:56;68.75;;;32.05;;
38399;SDS011;24180;42.676;23.320;2023-12-20T01:14:21;86.50;;;36.35;;
38399;SDS011;24180;42.676;23.320;2023-12-20T01:16:47;90.10;;;37.28;;
38399;SDS011;24180;42.676;23.320;2023-12-20T01:19:12;71.93;;;32.55;;
38399;SDS011;24180;42.676;23.320;2023-12-20T01:21:39;79.55;;;33.13;;
38399;SDS011;24180;42.676;23.320;2023-12-20T01:24:04;66.55;;;27.00;;
38399;SDS011;24180;42.676;23.320;2023-12-20T01:26:30;85.45;;;36.25;;
38399;SDS011;24180;42.676;23.320;2023-12-20T01:28:55;80.97;;;34.00;;
38399;SDS011;24180;42.676;23.320;2023-12-20T01:31:21;82.32;;;34.05;;
38399;SDS011;24180;42.676;23.320;2023-12-20T01:33:46;71.07;;;34.00;;
38399;SDS011;24180;42.676;23.320;2023-12-20T01:36:12;83.75;;;35.85;;
38399;SDS011;24180;42.676;23.320;2023-12-20T01:38:37;96.22;;;38.80;;
38399;SDS011;24180;42.676;23.320;2023-12-20T01:41:03;92.10;;;37.97;;
38399;SDS011;24180;42.676;23.320;2023-12-20T01:43:29;90.72;;;36.22;;
38399;SDS011;24180;42.676;23.320;2023-12-20T01:45:58;80.00;;;34.30;;
38399;SDS011;24180;42.676;23.320;2023-12-20T01:48:24;90.45;;;37.38;;
38399;SDS011;24180;42.676;23.320;2023-12-20T01:50:51;91.75;;;36.88;;
38399;SDS011;24180;42.676;23.320;2023-12-20T01:53:17;80.03;;;36.75;;
38399;SDS011;24180;42.676;23.320;2023-12-20T01:55:45;90.15;;;35.85;;
38399;SDS011;24180;42.676;23.320;2023-12-20T01:58:15;86.82;;;35.67;;
38399;SDS011;24180;42.676;23.320;2023-12-20T02:00:42;81.35;;;33.47;;
38399;SDS011;24180;42.676;23.320;2023-12-20T02:03:07;76.90;;;33.88;;
38399;SDS011;24180;42.676;23.320;2023-12-20T02:05:34;84.03;;;34.33;;
38399;SDS011;24180;42.676;23.320;2023-12-20T02:08:00;75.32;;;32.30;;
38399;SDS011;24180;42.676;23.320;2023-12-20T02:10:25;62.63;;;30.77;;
38399;SDS011;24180;42.676;23.320;2023-12-20T02:12:52;87.65;;;35.65;;
38399;SDS011;24180;42.676;23.320;2023-12-20T02:15:17;78.75;;;34.47;;
38399;SDS011;24180;42.676;23.320;2023-12-20T02:17:43;73.15;;;32.28;;
38399;SDS011;24180;42.676;23.320;2023-12-20T02:20:10;79.95;;;36.15;;
38399;SDS011;24180;42.676;23.320;2023-12-20T02:22:36;75.03;;;34.05;;
38399;SDS011;24180;42.676;23.320;2023-12-20T02:25:01;74.20;;;32.95;;
38399;SDS011;24180;42.676;23.320;2023-12-20T02:27:27;62.10;;;30.20;;
38399;SDS011;24180;42.676;23.320;2023-12-20T02:29:54;55.38;;;27.77;;
38399;SDS011;24180;42.676;23.320;2023-12-20T02:32:20;85.07;;;34.55;;
38399;SDS011;24180;42.676;23.320;2023-12-20T02:34:47;82.55;;;34.35;;
38399;SDS011;24180;42.676;23.320;2023-12-20T02:37:13;84.20;;;35.42;;
38399;SDS011;24180;42.676;23.320;2023-12-20T02:39:39;70.82;;;32.67;;
38399;SDS011;24180;42.676;23.320;2023-12-20T02:42:04;73.65;;;34.35;;
38399;SDS011;24180;42.676;23.320;2023-12-20T02:44:30;92.25;;;37.72;;
38399;SDS011;24180;42.676;23.320;2023-12-20T02:46:55;87.95;;;37.13;;
38399;SDS011;24180;42.676;23.320;2023-12-20T02:49:21;98.68;;;40.05;;
38399;SDS011;24180;42.676;23.320;2023-12-20T02:52:05;84.03;;;36.95;;
38399;SDS011;24180;42.676;23.320;2023-12-20T02:54:30;81.95;;;36.00;;
38399;SDS011;24180;42.676;23.320;2023-12-20T02:56:56;78.50;;;32.97;;
38399;SDS011;24180;42.676;23.320;2023-12-20T02:59:21;81.40;;;35.13;;
38399;SDS011;24180;42.676;23.320;2023-12-20T03:01:47;84.25;;;37.50;;
38399;SDS011;24180;42.676;23.320;2023-12-20T03:04:12;98.45;;;39.65;;
38399;SDS011;24180;42.676;23.320;2023-12-20T03:06:38;116.50;;;43.13;;
38399;SDS011;24180;42.676;23.320;2023-12-20T03:09:04;113.03;;;45.90;;
38399;SDS011;24180;42.676;23.320;2023-12-20T03:11:29;115.35;;;46.80;;
38399;SDS011;24180;42.676;23.320;2023-12-20T03:13:55;111.03;;;44.50;;
38399;SDS011;24180;42.676;23.320;2023-12-20T03:16:21;122.43;;;50.58;;
38399;SDS011;24180;42.676;23.320;2023-12-20T03:18:47;112.22;;;45.38;;
38399;SDS011;24180;42.676;23.320;2023-12-20T03:21:12;113.28;;;46.70;;
38399;SDS011;24180;42.676;23.320;2023-12-20T03:23:38;116.72;;;44.95;;
38399;SDS011;24180;42.676;23.320;2023-12-20T03:26:05;119.20;;;48.72;;
38399;SDS011;24180;42.676;23.320;2023-12-20T03:28:32;107.68;;;43.95;;
38399;SDS011;24180;42.676;23.320;2023-12-20T03:30:57;121.72;;;45.40;;
38399;SDS011;24180;42.676;23.320;2023-12-20T03:33:23;111.70;;;43.83;;
38399;SDS011;24180;42.676;23.320;2023-12-20T03:35:48;111.45;;;46.15;;
38399;SDS011;24180;42.676;23.320;2023-12-20T03:38:14;111.38;;;45.50;;
38399;SDS011;24180;42.676;23.320;2023-12-20T03:40:39;119.28;;;48.22;;
38399;SDS011;24180;42.676;23.320;2023-12-20T03:43:05;113.30;;;44.15;;
38399;SDS011;24180;42.676;23.320;2023-12-20T03:45:30;99.80;;;40.65;;
38399;SDS011;24180;42.676;23.320;2023-12-20T03:47:56;113.15;;;45.60;;
38399;SDS011;24180;42.676;23.320;2023-12-20T03:50:22;118.80;;;46.35;;
38399;SDS011;24180;42.676;23.320;2023-12-20T03:52:48;114.18;;;45.25;;
38399;SDS011;24180;42.676;23.320;2023-12-20T03:55:13;121.90;;;45.88;;
38399;SDS011;24180;42.676;23.320;2023-12-20T03:57:39;116.80;;;46.00;;
38399;SDS011;24180;42.676;23.320;2023-12-20T04:00:05;109.53;;;45.50;;
38399;SDS011;24180;42.676;23.320;2023-12-20T04:02:35;119.97;;;44.88;;
38399;SDS011;24180;42.676;23.320;2023-12-20T04:05:01;104.45;;;43.45;;
38399;SDS011;24180;42.676;23.320;2023-12-20T04:07:27;85.60;;;37.33;;
38399;SDS011;24180;42.676;23.320;2023-12-20T04:09:52;92.85;;;36.50;;
38399;SDS011;24180;42.676;23.320;2023-12-20T04:12:17;99.97;;;39.47;;
38399;SDS011;24180;42.676;23.320;2023-12-20T04:14:43;92.63;;;38.70;;
38399;SDS011;24180;42.676;23.320;2023-12-20T04:17:08;100.75;;;40.58;;
38399;SDS011;24180;42.676;23.320;2023-12-20T04:19:34;98.93;;;39.60;;
38399;SDS011;24180;42.676;23.320;2023-12-20T04:21:59;107.97;;;42.08;;
38399;SDS011;24180;42.676;23.320;2023-12-20T04:24:25;105.70;;;44.95;;
38399;SDS011;24180;42.676;23.320;2023-12-20T04:26:50;110.85;;;43.30;;
38399;SDS011;24180;42.676;23.320;2023-12-20T04:29:16;98.55;;;39.17;;
38399;SDS011;24180;42.676;23.320;2023-12-20T04:31:42;116.97;;;45.95;;
38399;SDS011;24180;42.676;23.320;2023-12-20T04:34:07;104.88;;;43.28;;
38399;SDS011;24180;42.676;23.320;2023-12-20T04:36:33;106.03;;;43.35;;
38399;SDS011;24180;42.676;23.320;2023-12-20T04:38:58;107.78;;;44.67;;
38399;SDS011;24180;42.676;23.320;2023-12-20T04:41:24;104.82;;;40.33;;
38399;SDS011;24180;42.676;23.320;2023-12-20T04:43:50;102.25;;;38.72;;
38399;SDS011;24180;42.676;23.320;2023-12-20T04:46:16;96.00;;;39.22;;
38399;SDS011;24180;42.676;23.320;2023-12-20T04:48:41;87.07;;;35.95;;
38399;SDS011;24180;42.676;23.320;2023-12-20T04:51:07;89.60;;;36.35;;
38399;SDS011;24180;42.676;23.320;2023-12-20T04:53:32;81.50;;;34.85;;
38399;SDS011;24180;42.676;23.320;2023-12-20T04:55:58;83.65;;;37.08;;
38399;SDS011;24180;42.676;23.320;2023-12-20T04:58:23;90.15;;;37.17;;
38399;SDS011;24180;42.676;23.320;2023-12-20T05:00:49;90.00;;;38.50;;
38399;SDS011;24180;42.676;23.320;2023-12-20T05:03:14;99.35;;;38.83;;
38399;SDS011;24180;42.676;23.320;2023-12-20T05:05:40;91.55;;;34.78;;
38399;SDS011;24180;42.676;23.320;2023-12-20T05:08:05;87.47;;;35.42;;
38399;SDS011;24180;42.676;23.320;2023-12-20T05:10:31;90.65;;;37.20;;
38399;SDS011;24180;42.676;23.320;2023-12-20T05:12:56;85.78;;;33.30;;
38399;SDS011;24180;42.676;23.320;2023-12-20T05:15:22;75.35;;;29.95;;
38399;SDS011;24180;42.676;23.320;2023-12-20T05:17:47;67.90;;;30.63;;
38399;SDS011;24180;42.676;23.320;2023-12-20T05:20:13;76.07;;;29.70;;
38399;SDS011;24180;42.676;23.320;2023-12-20T05:22:38;64.63;;;29.23;;
38399;SDS011;24180;42.676;23.320;2023-12-20T05:25:04;81.80;;;29.00;;
38399;SDS011;24180;42.676;23.320;2023-12-20T05:27:29;75.80;;;28.13;;
38399;SDS011;24180;42.676;23.320;2023-12-20T05:29:55;75.57;;;30.48;;
38399;SDS011;24180;42.676;23.320;2023-12-20T05:32:22;82.63;;;32.42;;
38399;SDS011;24180;42.676;23.320;2023-12-20T05:34:48;71.88;;;27.50;;
38399;SDS011;24180;42.676;23.320;2023-12-20T05:37:14;70.35;;;29.65;;
38399;SDS011;24180;42.676;23.320;2023-12-20T05:39:39;74.75;;;30.52;;
38399;SDS011;24180;42.676;23.320;2023-12-20T05:42:05;64.22;;;28.55;;
38399;SDS011;24180;42.676;23.320;2023-12-20T05:44:30;77.22;;;31.40;;
38399;SDS011;24180;42.676;23.320;2023-12-20T05:46:56;78.57;;;30.65;;
38399;SDS011;24180;42.676;23.320;2023-12-20T05:49:21;76.28;;;29.20;;
38399;SDS011;24180;42.676;23.320;2023-12-20T05:51:47;91.68;;;32.80;;
38399;SDS011;24180;42.676;23.320;2023-12-20T05:54:12;84.57;;;31.52;;
38399;SDS011;24180;42.676;23.320;2023-12-20T05:56:38;72.22;;;30.33;;
38399;SDS011;24180;42.676;23.320;2023-12-20T05:59:03;76.75;;;30.55;;
38399;SDS011;24180;42.676;23.320;2023-12-20T06:01:29;86.78;;;33.13;;
38399;SDS011;24180;42.676;23.320;2023-12-20T06:03:54;76.72;;;28.65;;
38399;SDS011;24180;42.676;23.320;2023-12-20T06:06:20;87.75;;;28.42;;
38399;SDS011;24180;42.676;23.320;2023-12-20T06:08:45;95.35;;;31.95;;
38399;SDS011;24180;42.676;23.320;2023-12-20T06:11:11;82.40;;;30.25;;
38399;SDS011;24180;42.676;23.320;2023-12-20T06:13:36;78.40;;;30.92;;
38399;SDS011;24180;42.676;23.320;2023-12-20T06:16:03;72.18;;;28.92;;
38399;SDS011;24180;42.676;23.320;2023-12-20T06:18:30;77.95;;;29.05;;
38399;SDS011;24180;42.676;23.320;2023-12-20T06:20:55;63.70;;;26.48;;
38399;SDS011;24180;42.676;23.320;2023-12-20T06:23:21;85.47;;;30.52;;
38399;SDS011;24180;42.676;23.320;2023-12-20T06:25:46;85.35;;;30.58;;
38399;SDS011;24180;42.676;23.320;2023-12-20T06:28:11;70.03;;;27.75;;
38399;SDS011;24180;42.676;23.320;2023-12-20T06:30:39;74.18;;;27.73;;
38399;SDS011;24180;42.676;23.320;2023-12-20T06:33:05;65.78;;;27.40;;
38399;SDS011;24180;42.676;23.320;2023-12-20T06:35:31;80.72;;;29.10;;
38399;SDS011;24180;42.676;23.320;2023-12-20T06:37:57;87.45;;;30.17;;
38399;SDS011;24180;42.676;23.320;2023-12-20T06:40:23;90.63;;;31.50;;
38399;SDS011;24180;42.676;23.320;2023-12-20T06:42:48;84.25;;;30.73;;
38399;SDS011;24180;42.676;23.320;2023-12-20T06:45:14;97.25;;;32.42;;
38399;SDS011;24180;42.676;23.320;2023-12-20T06:47:39;69.43;;;26.98;;
38399;SDS011;24180;42.676;23.320;2023-12-20T06:50:05;89.88;;;32.75;;
38399;SDS011;24180;42.676;23.320;2023-12-20T06:52:31;73.72;;;28.60;;
38399;SDS011;24180;42.676;23.320;2023-12-20T06:54:56;71.03;;;28.63;;
38399;SDS011;24180;42.676;23.320;2023-12-20T06:57:22;75.57;;;29.00;;
38399;SDS011;24180;42.676;23.320;2023-12-20T06:59:48;67.25;;;27.42;;
38399;SDS011;24180;42.676;23.320;2023-12-20T07:02:14;77.10;;;28.80;;
38399;SDS011;24180;42.676;23.320;2023-12-20T07:04:39;80.85;;;29.30;;
38399;SDS011;24180;42.676;23.320;2023-12-20T07:07:05;76.55;;;28.52;;
38399;SDS011;24180;42.676;23.320;2023-12-20T07:09:32;82.50;;;30.73;;
38399;SDS011;24180;42.676;23.320;2023-12-20T07:11:57;89.75;;;31.17;;
38399;SDS011;24180;42.676;23.320;2023-12-20T07:14:23;88.45;;;31.88;;
38399;SDS011;24180;42.676;23.320;2023-12-20T07:16:49;85.03;;;30.05;;
38399;SDS011;24180;42.676;23.320;2023-12-20T07:19:14;78.07;;;29.92;;
38399;SDS011;24180;42.676;23.320;2023-12-20T07:21:40;72.90;;;28.70;;
38399;SDS011;24180;42.676;23.320;2023-12-20T07:24:05;77.65;;;30.25;;
38399;SDS011;24180;42.676;23.320;2023-12-20T07:26:30;81.75;;;29.73;;
38399;SDS011;24180;42.676;23.320;2023-12-20T07:28:56;76.93;;;29.58;;
38399;SDS011;24180;42.676;23.320;2023-12-20T07:31:23;81.35;;;30.90;;
38399;SDS011;24180;42.676;23.320;2023-12-20T07:33:49;89.03;;;31.23;;
38399;SDS011;24180;42.676;23.320;2023-12-20T07:36:14;100.10;;;32.22;;
38399;SDS011;24180;42.676;23.320;2023-12-20T07:38:40;87.55;;;32.28;;
38399;SDS011;24180;42.676;23.320;2023-12-20T07:41:09;79.75;;;31.45;;
38399;SDS011;24180;42.676;23.320;2023-12-20T07:43:35;86.65;;;31.13;;
38399;SDS011;24180;42.676;23.320;2023-12-20T07:46:07;82.68;;;32.38;;
38399;SDS011;24180;42.676;23.320;2023-12-20T07:48:36;84.78;;;32.83;;
38399;SDS011;24180;42.676;23.320;2023-12-20T07:51:02;93.72;;;34.92;;
38399;SDS011;24180;42.676;23.320;2023-12-20T07:53:28;85.50;;;32.03;;
38399;SDS011;24180;42.676;23.320;2023-12-20T07:55:53;78.90;;;32.13;;
38399;SDS011;24180;42.676;23.320;2023-12-20T07:58:20;84.07;;;30.25;;
38399;SDS011;24180;42.676;23.320;2023-12-20T08:00:45;91.63;;;32.88;;
38399;SDS011;24180;42.676;23.320;2023-12-20T08:03:11;84.10;;;32.05;;
38399;SDS011;24180;42.676;23.320;2023-12-20T08:05:38;89.47;;;34.63;;
38399;SDS011;24180;42.676;23.320;2023-12-20T08:08:05;86.43;;;32.13;;
38399;SDS011;24180;42.676;23.320;2023-12-20T08:10:31;97.80;;;34.17;;
38399;SDS011;24180;42.676;23.320;2023-12-20T08:12:56;84.25;;;33.47;;
38399;SDS011;24180;42.676;23.320;2023-12-20T08:15:22;78.57;;;30.15;;
38399;SDS011;24180;42.676;23.320;2023-12-20T08:17:48;74.88;;;30.65;;
38399;SDS011;24180;42.676;23.320;2023-12-20T08:20:16;80.45;;;32.42;;
38399;SDS011;24180;42.676;23.320;2023-12-20T08:22:41;81.80;;;31.48;;
38399;SDS011;24180;42.676;23.320;2023-12-20T08:25:07;75.88;;;31.10;;
38399;SDS011;24180;42.676;23.320;2023-12-20T08:27:33;75.60;;;30.77;;
38399;SDS011;24180;42.676;23.320;2023-12-20T08:30:02;88.95;;;32.20;;
38399;SDS011;24180;42.676;23.320;2023-12-20T08:32:27;83.53;;;33.50;;
38399;SDS011;24180;42.676;23.320;2023-12-20T08:34:53;85.55;;;33.00;;
38399;SDS011;24180;42.676;23.320;2023-12-20T08:37:18;86.30;;;34.10;;
38399;SDS011;24180;42.676;23.320;2023-12-20T08:39:44;89.20;;;32.42;;
38399;SDS011;24180;42.676;23.320;2023-12-20T08:42:10;79.40;;;32.42;;
38399;SDS011;24180;42.676;23.320;2023-12-20T08:44:35;86.53;;;31.38;;
38399;SDS011;24180;42.676;23.320;2023-12-20T08:47:00;84.75;;;32.08;;
38399;SDS011;24180;42.676;23.320;2023-12-20T08:49:26;88.75;;;34.88;;
38399;SDS011;24180;42.676;23.320;2023-12-20T08:51:53;92.60;;;33.92;;
38399;SDS011;24180;42.676;23.320;2023-12-20T08:54:18;93.53;;;34.05;;
38399;SDS011;24180;42.676;23.320;2023-12-20T08:56:44;84.20;;;31.70;;
38399;SDS011;24180;42.676;23.320;2023-12-20T08:59:11;88.85;;;32.10;;
38399;SDS011;24180;42.676;23.320;2023-12-20T09:01:37;85.78;;;33.42;;
38399;SDS011;24180;42.676;23.320;2023-12-20T09:04:02;81.90;;;35.75;;
38399;SDS011;24180;42.676;23.320;2023-12-20T09:06:28;89.00;;;35.25;;
38399;SDS011;24180;42.676;23.320;2023-12-20T09:08:53;96.88;;;35.15;;
38399;SDS011;24180;42.676;23.320;2023-12-20T09:11:19;88.75;;;34.47;;
38399;SDS011;24180;42.676;23.320;2023-12-20T09:13:44;90.85;;;36.22;;
38399;SDS011;24180;42.676;23.320;2023-12-20T09:16:10;90.15;;;35.03;;
38399;SDS011;24180;42.676;23.320;2023-12-20T09:18:35;88.60;;;32.97;;
38399;SDS011;24180;42.676;23.320;2023-12-20T09:21:01;89.32;;;34.20;;
38399;SDS011;24180;42.676;23.320;2023-12-20T09:23:27;81.53;;;34.80;;
38399;SDS011;24180;42.676;23.320;2023-12-20T09:25:52;78.65;;;33.53;;
38399;SDS011;24180;42.676;23.320;2023-12-20T09:28:18;81.97;;;32.30;;
38399;SDS011;24180;42.676;23.320;2023-12-20T09:30:43;74.25;;;33.13;;
38399;SDS011;24180;42.676;23.320;2023-12-20T09:35:36;73.00;;;29.50;;
38399;SDS011;24180;42.676;23.320;2023-12-20T09:38:02;73.82;;;31.02;;
38399;SDS011;24180;42.676;23.320;2023-12-20T09:40:27;70.95;;;28.52;;
38399;SDS011;24180;42.676;23.320;2023-12-20T09:42:57;69.22;;;29.30;;
38399;SDS011;24180;42.676;23.320;2023-12-20T09:45:26;59.20;;;27.13;;
38399;SDS011;24180;42.676;23.320;2023-12-20T09:47:53;59.40;;;27.23;;
38399;SDS011;24180;42.676;23.320;2023-12-20T09:50:22;65.32;;;27.77;;
38399;SDS011;24180;42.676;23.320;2023-12-20T09:52:51;63.83;;;26.25;;
38399;SDS011;24180;42.676;23.320;2023-12-20T09:55:18;72.07;;;27.85;;
38399;SDS011;24180;42.676;23.320;2023-12-20T09:57:45;74.45;;;27.30;;
38399;SDS011;24180;42.676;23.320;2023-12-20T10:00:11;73.95;;;28.38;;
38399;SDS011;24180;42.676;23.320;2023-12-20T10:02:38;72.28;;;29.50;;
38399;SDS011;24180;42.676;23.320;2023-12-20T10:05:16;75.32;;;28.17;;
38399;SDS011;24180;42.676;23.320;2023-12-20T10:07:48;78.28;;;28.38;;
38399;SDS011;24180;42.676;23.320;2023-12-20T10:10:13;75.70;;;28.70;;
38399;SDS011;24180;42.676;23.320;2023-12-20T10:12:39;69.97;;;27.65;;
38399;SDS011;24180;42.676;23.320;2023-12-20T10:15:05;73.80;;;30.98;;
38399;SDS011;24180;42.676;23.320;2023-12-20T10:17:31;74.10;;;29.88;;
38399;SDS011;24180;42.676;23.320;2023-12-20T10:19:57;73.95;;;31.80;;
38399;SDS011;24180;42.676;23.320;2023-12-20T10:22:23;75.43;;;31.35;;
38399;SDS011;24180;42.676;23.320;2023-12-20T10:24:49;70.75;;;30.48;;
38399;SDS011;24180;42.676;23.320;2023-12-20T10:27:16;78.38;;;32.78;;
38399;SDS011;24180;42.676;23.320;2023-12-20T10:29:44;77.00;;;32.40;;
38399;SDS011;24180;42.676;23.320;2023-12-20T10:32:22;75.03;;;30.83;;
38399;SDS011;24180;42.676;23.320;2023-12-20T10:39:41;70.15;;;32.83;;
38399;SDS011;24180;42.676;23.320;2023-12-20T10:42:08;83.15;;;35.28;;
38399;SDS011;24180;42.676;23.320;2023-12-20T10:44:36;76.40;;;34.85;;
38399;SDS011;24180;42.676;23.320;2023-12-20T10:47:02;76.07;;;36.33;;
38399;SDS011;24180;42.676;23.320;2023-12-20T10:49:29;89.22;;;38.78;;
38399;SDS011;24180;42.676;23.320;2023-12-20T10:51:56;86.82;;;37.00;;
38399;SDS011;24180;42.676;23.320;2023-12-20T10:54:24;76.63;;;35.25;;
38399;SDS011;24180;42.676;23.320;2023-12-20T10:56:50;83.55;;;36.55;;
38399;SDS011;24180;42.676;23.320;2023-12-20T10:59:17;82.18;;;35.25;;
38399;SDS011;24180;42.676;23.320;2023-12-20T11:01:45;76.78;;;33.53;;
38399;SDS011;24180;42.676;23.320;2023-12-20T11:04:14;84.00;;;35.15;;
38399;SDS011;24180;42.676;23.320;2023-12-20T11:06:47;80.97;;;31.58;;
38399;SDS011;24180;42.676;23.320;2023-12-20T11:09:25;81.55;;;33.25;;
38399;SDS011;24180;42.676;23.320;2023-12-20T11:14:47;83.78;;;31.30;;
38399;SDS011;24180;42.676;23.320;2023-12-20T11:17:18;76.38;;;30.58;;
38399;SDS011;24180;42.676;23.320;2023-12-20T11:22:22;82.80;;;29.90;;
38399;SDS011;24180;42.676;23.320;2023-12-20T11:24:50;76.40;;;30.02;;
38399;SDS011;24180;42.676;23.320;2023-12-20T11:27:17;79.28;;;28.45;;
38399;SDS011;24180;42.676;23.320;2023-12-20T11:29:52;88.82;;;29.73;;
38399;SDS011;24180;42.676;23.320;2023-12-20T11:34:56;74.45;;;27.75;;
38399;SDS011;24180;42.676;23.320;2023-12-20T11:37:30;77.68;;;28.88;;
38399;SDS011;24180;42.676;23.320;2023-12-20T11:42:33;80.80;;;29.65;;
38399;SDS011;24180;42.676;23.320;2023-12-20T11:45:02;77.82;;;28.30;;
38399;SDS011;24180;42.676;23.320;2023-12-20T11:47:28;77.15;;;29.15;;
38399;SDS011;24180;42.676;23.320;2023-12-20T11:49:56;80.38;;;30.00;;
38399;SDS011;24180;42.676;23.320;2023-12-20T11:52:22;88.47;;;32.38;;
38399;SDS011;24180;42.676;23.320;2023-12-20T11:54:47;79.20;;;29.70;;
38399;SDS011;24180;42.676;23.320;2023-12-20T11:57:13;86.00;;;28.92;;
38399;SDS011;24180;42.676;23.320;2023-12-20T11:59:39;77.70;;;28.63;;
38399;SDS011;24180;42.676;23.320;2023-12-20T12:02:04;74.00;;;29.45;;
38399;SDS011;24180;42.676;23.320;2023-12-20T12:04:30;73.68;;;27.77;;
38399;SDS011;24180;42.676;23.320;2023-12-20T12:06:56;79.95;;;31.45;;
38399;SDS011;24180;42.676;23.320;2023-12-20T12:09:21;78.35;;;30.40;;
38399;SDS011;24180;42.676;23.320;2023-12-20T12:11:47;74.97;;;30.08;;
38399;SDS011;24180;42.676;23.320;2023-12-20T12:14:13;73.32;;;29.95;;
38399;SDS011;24180;42.676;23.320;2023-12-20T12:16:41;69.43;;;29.08;;
38399;SDS011;24180;42.676;23.320;2023-12-20T12:19:07;74.50;;;29.92;;
38399;SDS011;24180;42.676;23.320;2023-12-20T12:21:44;74.53;;;27.98;;
38399;SDS011;24180;42.676;23.320;2023-12-20T12:24:10;77.65;;;29.08;;
38399;SDS011;24180;42.676;23.320;2023-12-20T12:26:35;76.55;;;30.77;;
38399;SDS011;24180;42.676;23.320;2023-12-20T12:29:01;79.10;;;29.65;;
38399;SDS011;24180;42.676;23.320;2023-12-20T12:31:26;81.00;;;31.50;;
38399;SDS011;24180;42.676;23.320;2023-12-20T12:33:52;85.22;;;30.70;;
38399;SDS011;24180;42.676;23.320;2023-12-20T12:36:17;80.85;;;30.23;;
38399;SDS011;24180;42.676;23.320;2023-12-20T12:38:43;69.03;;;29.35;;
38399;SDS011;24180;42.676;23.320;2023-12-20T12:41:09;75.00;;;30.45;;
38399;SDS011;24180;42.676;23.320;2023-12-20T12:43:35;84.53;;;30.98;;
38399;SDS011;24180;42.676;23.320;2023-12-20T12:46:01;79.50;;;30.50;;
38399;SDS011;24180;42.676;23.320;2023-12-20T12:48:26;82.63;;;30.52;;
38399;SDS011;24180;42.676;23.320;2023-12-20T12:50:53;79.93;;;30.13;;
38399;SDS011;24180;42.676;23.320;2023-12-20T12:53:19;81.28;;;29.08;;
38399;SDS011;24180;42.676;23.320;2023-12-20T12:55:45;80.90;;;29.35;;
38399;SDS011;24180;42.676;23.320;2023-12-20T12:58:11;86.60;;;32.65;;
38399;SDS011;24180;42.676;23.320;2023-12-20T13:00:37;81.00;;;30.83;;
38399;SDS011;24180;42.676;23.320;2023-12-20T13:03:02;92.82;;;31.67;;
38399;SDS011;24180;42.676;23.320;2023-12-20T13:05:29;94.13;;;32.05;;
38399;SDS011;24180;42.676;23.320;2023-12-20T13:07:54;80.25;;;30.75;;
38399;SDS011;24180;42.676;23.320;2023-12-20T13:10:20;84.78;;;30.60;;
38399;SDS011;24180;42.676;23.320;2023-12-20T13:12:45;72.70;;;29.27;;
38399;SDS011;24180;42.676;23.320;2023-12-20T13:15:11;77.43;;;29.35;;
38399;SDS011;24180;42.676;23.320;2023-12-20T13:17:36;87.43;;;31.92;;
38399;SDS011;24180;42.676;23.320;2023-12-20T13:20:03;72.13;;;28.55;;
38399;SDS011;24180;42.676;23.320;2023-12-20T13:22:28;85.22;;;29.40;;
38399;SDS011;24180;42.676;23.320;2023-12-20T13:24:54;81.82;;;29.17;;
38399;SDS011;24180;42.676;23.320;2023-12-20T13:27:19;84.28;;;31.20;;
38399;SDS011;24180;42.676;23.320;2023-12-20T13:29:45;76.35;;;28.25;;
38399;SDS011;24180;42.676;23.320;2023-12-20T13:32:10;83.80;;;31.35;;
38399;SDS011;24180;42.676;23.320;2023-12-20T13:34:36;80.15;;;30.10;;
38399;SDS011;24180;42.676;23.320;2023-12-20T13:37:01;98.25;;;33.13;;
38399;SDS011;24180;42.676;23.320;2023-12-20T13:39:27;98.57;;;34.85;;
38399;SDS011;24180;42.676;23.320;2023-12-20T13:41:52;99.63;;;33.78;;
38399;SDS011;24180;42.676;23.320;2023-12-20T13:44:18;102.30;;;32.80;;
38399;SDS011;24180;42.676;23.320;2023-12-20T13:46:43;93.65;;;33.03;;
38399;SDS011;24180;42.676;23.320;2023-12-20T13:49:10;94.25;;;32.60;;
38399;SDS011;24180;42.676;23.320;2023-12-20T13:51:37;85.40;;;33.28;;
38399;SDS011;24180;42.676;23.320;2023-12-20T13:54:03;91.93;;;31.95;;
38399;SDS011;24180;42.676;23.320;2023-12-20T13:56:29;95.55;;;33.65;;
38399;SDS011;24180;42.676;23.320;2023-12-20T13:58:54;90.82;;;31.75;;
38399;SDS011;24180;42.676;23.320;2023-12-20T14:01:20;90.38;;;30.80;;
38399;SDS011;24180;42.676;23.320;2023-12-20T14:03:45;88.65;;;30.63;;
38399;SDS011;24180;42.676;23.320;2023-12-20T14:06:11;92.70;;;31.75;;
38399;SDS011;24180;42.676;23.320;2023-12-20T14:08:36;84.82;;;30.73;;
38399;SDS011;24180;42.676;23.320;2023-12-20T14:11:02;80.65;;;31.25;;
38399;SDS011;24180;42.676;23.320;2023-12-20T14:13:28;91.18;;;33.25;;
38399;SDS011;24180;42.676;23.320;2023-12-20T14:15:53;93.15;;;30.27;;
38399;SDS011;24180;42.676;23.320;2023-12-20T14:18:19;88.85;;;29.33;;